createdAt,value
2023-11-24T00:00:33.137Z,7.07
2023-11-24T00:03:01.631Z,7.10
2023-11-24T00:05:28.582Z,7.03
2023-11-24T00:07:55.513Z,7.57
2023-11-24T00:10:22.994Z,7.27
2023-11-24T00:12:51.127Z,6.70
2023-11-24T00:15:18.263Z,6.30
2023-11-24T00:17:45.274Z,6.07
2023-11-24T00:20:15.442Z,6.47
2023-11-24T00:22:42.544Z,6.03
2023-11-24T00:25:10.564Z,6.00
2023-11-24T00:27:38.349Z,5.70
2023-11-24T00:30:08.759Z,5.93
2023-11-24T00:32:36.068Z,4.10
2023-11-24T00:35:03.095Z,4.37
2023-11-24T00:37:31.314Z,3.60
2023-11-24T00:39:58.355Z,3.47
2023-11-24T00:42:25.384Z,2.80
2023-11-24T00:44:52.459Z,2.90
2023-11-24T00:47:19.418Z,3.13
2023-11-24T00:49:48.974Z,2.47
2023-11-24T00:52:16.149Z,2.53
2023-11-24T00:54:44.376Z,2.60
2023-11-24T00:57:11.304Z,2.30
2023-11-24T00:59:38.165Z,2.40
2023-11-24T01:02:05.624Z,2.30
2023-11-24T01:04:32.683Z,1.97
2023-11-24T01:06:59.675Z,2.13
2023-11-24T01:09:26.671Z,2.00
2023-11-24T01:11:55.081Z,1.73
2023-11-24T01:14:22.128Z,2.10
2023-11-24T01:16:49.107Z,2.10
2023-11-24T01:19:15.965Z,1.80
2023-11-24T01:21:42.872Z,1.80
2023-11-24T01:24:09.944Z,2.10
2023-11-24T01:26:38.646Z,2.07
2023-11-24T01:29:07.351Z,1.63
2023-11-24T01:31:34.327Z,1.93
2023-11-24T01:34:01.253Z,2.00
2023-11-24T01:36:28.412Z,1.83
2023-11-24T01:38:56.014Z,1.87
2023-11-24T01:41:22.987Z,1.80
2023-11-24T01:43:59.867Z,1.50
2023-11-24T01:46:28.342Z,1.60
2023-11-24T01:48:56.095Z,1.53
2023-11-24T01:51:24.874Z,0.90
2023-11-24T01:53:52.460Z,0.83
2023-11-24T01:56:19.986Z,0.60
2023-11-24T01:58:47.317Z,0.67
2023-11-24T02:01:14.866Z,0.90
2023-11-24T02:03:43.290Z,1.10
2023-11-24T02:06:12.996Z,0.93
2023-11-24T02:08:40.278Z,1.40
2023-11-24T02:11:07.449Z,1.10
2023-11-24T02:13:34.300Z,1.37
2023-11-24T02:16:01.421Z,1.87
2023-11-24T02:18:28.405Z,1.43
2023-11-24T02:20:56.686Z,1.83
2023-11-24T02:23:24.959Z,2.07
2023-11-24T02:25:51.875Z,1.63
2023-11-24T02:28:18.772Z,1.90
2023-11-24T02:30:45.842Z,2.10
2023-11-24T02:33:12.883Z,1.73
2023-11-24T02:35:40.810Z,1.93
2023-11-24T02:38:07.723Z,1.80
2023-11-24T02:40:35.938Z,1.70
2023-11-24T02:43:02.853Z,1.57
2023-11-24T02:45:29.826Z,1.93
2023-11-24T02:47:56.865Z,1.80
2023-11-24T02:50:23.803Z,1.67
2023-11-24T02:52:50.816Z,1.60
2023-11-24T02:55:19.516Z,1.47
2023-11-24T02:57:48.731Z,2.30
2023-11-24T03:00:19.088Z,1.40
2023-11-24T03:02:47.619Z,1.60
2023-11-24T03:05:15.100Z,1.90
2023-11-24T03:07:42.033Z,2.03
2023-11-24T03:10:09.857Z,1.53
2023-11-24T03:12:36.852Z,1.90
2023-11-24T03:15:06.213Z,1.43
2023-11-24T03:17:33.210Z,2.43
2023-11-24T03:20:00.253Z,2.10
2023-11-24T03:22:27.118Z,1.60
2023-11-24T03:24:54.664Z,1.97
2023-11-24T03:27:21.556Z,1.90
2023-11-24T03:29:48.481Z,2.30
2023-11-24T03:32:16.764Z,1.27
2023-11-24T03:34:43.792Z,1.10
2023-11-24T03:37:10.720Z,1.00
2023-11-24T03:39:37.618Z,1.07
2023-11-24T03:42:04.957Z,1.33
2023-11-24T03:44:31.862Z,1.33
2023-11-24T03:46:58.785Z,1.27
2023-11-24T03:49:26.985Z,0.83
2023-11-24T03:51:53.872Z,1.10
2023-11-24T03:54:23.066Z,1.40
2023-11-24T03:56:50.003Z,1.90
2023-11-24T03:59:16.920Z,1.03
2023-11-24T04:01:44.124Z,1.23
2023-11-24T04:04:11.153Z,0.87
2023-11-24T04:06:39.762Z,1.03
2023-11-24T04:09:06.701Z,1.47
2023-11-24T04:11:33.758Z,0.80
2023-11-24T04:14:00.681Z,1.20
2023-11-24T04:16:27.838Z,1.10
2023-11-24T04:18:54.865Z,1.63
2023-11-24T04:21:21.722Z,1.00
2023-11-24T04:23:50.061Z,1.23
2023-11-24T04:26:16.907Z,1.20
2023-11-24T04:28:43.792Z,1.33
2023-11-24T04:31:10.689Z,1.33
2023-11-24T04:33:37.685Z,1.23
2023-11-24T04:36:05.046Z,1.80
2023-11-24T04:38:33.581Z,1.40
2023-11-24T04:41:03.177Z,1.40
2023-11-24T04:43:30.072Z,1.50
2023-11-24T04:45:57.099Z,1.30
2023-11-24T04:48:24.357Z,1.37
2023-11-24T04:50:51.246Z,1.40
2023-11-24T04:53:18.163Z,1.53
2023-11-24T04:55:45.026Z,1.20
2023-11-24T04:58:13.359Z,1.83
2023-11-24T05:00:40.284Z,1.00
2023-11-24T05:03:09.117Z,0.90
2023-11-24T05:05:36.036Z,1.97
2023-11-24T05:08:04.038Z,1.60
2023-11-24T05:10:31.021Z,1.50
2023-11-24T05:12:57.946Z,1.90
2023-11-24T05:15:26.181Z,2.10
2023-11-24T05:17:53.165Z,1.90
2023-11-24T05:20:20.189Z,1.57
2023-11-24T05:22:47.187Z,1.30
2023-11-24T05:25:14.068Z,1.93
2023-11-24T05:27:40.953Z,1.80
2023-11-24T05:30:10.106Z,2.13
2023-11-24T05:32:38.835Z,2.00
2023-11-24T05:35:06.416Z,1.60
2023-11-24T05:37:33.372Z,1.27
2023-11-24T05:40:02.742Z,1.67
2023-11-24T05:42:29.804Z,1.53
2023-11-24T05:44:56.692Z,1.60
2023-11-24T05:47:23.667Z,1.97
2023-11-24T05:49:53.297Z,1.53
2023-11-24T05:52:21.435Z,1.80
2023-11-24T05:54:49.378Z,1.97
2023-11-24T05:57:16.478Z,2.00
2023-11-24T05:59:44.107Z,1.27
2023-11-24T06:02:11.095Z,2.13
2023-11-24T06:04:39.145Z,1.97
2023-11-24T06:07:07.647Z,2.27
2023-11-24T06:09:34.884Z,1.90
2023-11-24T06:12:02.527Z,1.90
2023-11-24T06:14:29.418Z,1.77
2023-11-24T06:16:56.332Z,2.03
2023-11-24T06:19:23.232Z,2.77
2023-11-24T06:21:50.325Z,2.43
2023-11-24T06:24:18.624Z,1.93
2023-11-24T06:26:45.501Z,1.27
2023-11-24T06:29:12.399Z,2.30
2023-11-24T06:31:39.481Z,2.70
2023-11-24T06:34:06.521Z,1.50
2023-11-24T06:36:35.972Z,1.87
2023-11-24T06:39:04.029Z,2.30
2023-11-24T06:41:32.334Z,1.27
2023-11-24T06:43:59.231Z,1.40
2023-11-24T06:46:26.222Z,1.53
2023-11-24T06:48:54.162Z,2.93
2023-11-24T06:51:21.382Z,1.40
2023-11-24T06:53:48.286Z,1.87
2023-11-24T06:56:15.124Z,1.90
2023-11-24T06:58:43.347Z,1.53
2023-11-24T07:01:11.424Z,1.70
2023-11-24T07:03:39.110Z,1.87
2023-11-24T07:06:07.723Z,2.23
2023-11-24T07:08:34.875Z,1.90
2023-11-24T07:11:01.887Z,1.50
2023-11-24T07:13:29.038Z,2.03
2023-11-24T07:15:57.729Z,1.27
2023-11-24T07:18:24.826Z,1.67
2023-11-24T07:20:52.612Z,1.73
2023-11-24T07:23:20.485Z,2.17
2023-11-24T07:25:48.441Z,1.53
2023-11-24T07:28:16.062Z,1.70
2023-11-24T07:30:43.776Z,1.60
2023-11-24T07:33:12.581Z,1.43
2023-11-24T07:35:39.536Z,2.03
2023-11-24T07:38:06.484Z,1.30
2023-11-24T07:40:33.677Z,2.03
2023-11-24T07:43:00.540Z,1.30
2023-11-24T07:45:27.667Z,1.70
2023-11-24T07:47:54.656Z,1.30
2023-11-24T07:50:22.952Z,1.73
2023-11-24T07:52:49.908Z,2.23
2023-11-24T07:55:16.999Z,2.07
2023-11-24T07:57:44.068Z,1.53
2023-11-24T08:00:14.212Z,3.50
2023-11-24T08:02:42.495Z,1.60
2023-11-24T08:05:09.915Z,2.23
2023-11-24T08:07:38.722Z,1.63
2023-11-24T08:10:06.902Z,3.67
2023-11-24T08:12:33.965Z,2.17
2023-11-24T08:15:01.342Z,1.20
2023-11-24T08:17:28.472Z,1.33
2023-11-24T08:19:55.617Z,1.10
2023-11-24T08:22:22.647Z,1.43
2023-11-24T08:24:51.378Z,1.63
2023-11-24T08:27:19.480Z,7.83
2023-11-24T08:29:46.395Z,1.33
2023-11-24T08:32:13.409Z,2.00
2023-11-24T08:34:40.394Z,1.90
2023-11-24T08:37:07.467Z,1.03
2023-11-24T08:39:34.890Z,1.20
2023-11-24T08:42:04.941Z,1.27
2023-11-24T08:44:31.882Z,1.60
2023-11-24T08:46:58.968Z,1.60
2023-11-24T08:49:25.940Z,3.77
2023-11-24T08:51:52.960Z,1.43
2023-11-24T08:54:19.946Z,1.50
2023-11-24T08:56:46.848Z,1.87
2023-11-24T08:59:15.150Z,1.57
2023-11-24T09:01:42.152Z,1.20
2023-11-24T09:04:11.171Z,1.20
2023-11-24T09:06:39.891Z,1.30
2023-11-24T09:09:10.194Z,1.60
2023-11-24T09:11:37.093Z,1.23
2023-11-24T09:14:05.813Z,1.33
2023-11-24T09:16:35.446Z,3.57
2023-11-24T09:19:02.651Z,2.20
2023-11-24T09:21:32.054Z,1.60
2023-11-24T09:23:58.987Z,1.30
2023-11-24T09:26:25.951Z,1.60
2023-11-24T09:28:53.353Z,1.43
2023-11-24T09:31:20.392Z,1.13
2023-11-24T09:33:49.220Z,1.40
2023-11-24T09:36:16.173Z,1.10
2023-11-24T09:38:45.391Z,1.40
2023-11-24T09:41:12.974Z,0.90
2023-11-24T09:43:40.182Z,1.03
2023-11-24T09:46:08.179Z,0.90
2023-11-24T09:48:36.222Z,2.90
2023-11-24T09:51:07.349Z,3.93
2023-11-24T09:53:34.734Z,3.17
2023-11-24T09:56:02.034Z,2.00
2023-11-24T09:58:29.023Z,1.00
2023-11-24T10:01:01.066Z,0.90
2023-11-24T10:03:29.773Z,0.70
2023-11-24T10:05:56.715Z,0.80
2023-11-24T10:08:25.735Z,0.50
2023-11-24T10:10:52.732Z,0.50
2023-11-24T10:13:19.870Z,0.43
2023-11-24T10:15:52.578Z,0.47
2023-11-24T10:18:20.038Z,1.00
2023-11-24T10:20:50.794Z,0.67
2023-11-24T10:23:17.712Z,0.20
2023-11-24T10:25:48.726Z,0.20
2023-11-24T10:28:19.574Z,0.20
2023-11-24T10:30:47.042Z,0.40
2023-11-24T10:33:34.713Z,0.30
2023-11-24T10:36:05.422Z,0.30
2023-11-24T10:38:32.908Z,0.20
2023-11-24T10:41:04.864Z,0.50
2023-11-24T10:43:32.595Z,0.20
2023-11-24T10:46:04.024Z,0.30
2023-11-24T10:48:35.162Z,0.40
2023-11-24T10:51:09.892Z,0.60
2023-11-24T10:53:43.353Z,0.50
2023-11-24T10:56:14.364Z,0.40
2023-11-24T10:58:42.736Z,0.47
2023-11-24T11:01:10.375Z,0.90
2023-11-24T11:03:37.850Z,0.47
2023-11-24T11:06:11.678Z,0.40
2023-11-24T11:08:42.577Z,0.57
2023-11-24T11:11:50.637Z,0.47
2023-11-24T11:14:19.895Z,0.50
2023-11-24T11:16:47.219Z,0.70
2023-11-24T11:19:30.540Z,0.50
2023-11-24T11:22:00.994Z,0.50
2023-11-24T11:24:31.533Z,0.47
2023-11-24T11:27:00.003Z,1.00
2023-11-24T11:29:29.522Z,1.10
2023-11-24T11:31:57.349Z,0.90
2023-11-24T11:34:30.808Z,1.00
2023-11-24T11:37:06.821Z,0.70
2023-11-24T11:39:58.962Z,0.63
2023-11-24T11:42:33.820Z,1.20
2023-11-24T11:45:10.729Z,1.07
2023-11-24T11:47:50.004Z,0.60
2023-11-24T11:50:21.978Z,0.70
2023-11-24T11:52:52.932Z,0.67
2023-11-24T11:55:23.109Z,0.63
2023-11-24T11:57:54.768Z,0.60
2023-11-24T12:00:26.302Z,0.90
2023-11-24T12:02:53.640Z,0.70
2023-11-24T12:05:23.015Z,0.67
2023-11-24T12:07:50.439Z,1.30
2023-11-24T12:10:17.511Z,1.80
2023-11-24T12:12:47.371Z,0.87
2023-11-24T12:15:18.649Z,1.20
2023-11-24T12:17:46.043Z,1.90
2023-11-24T12:20:15.569Z,2.07
2023-11-24T12:22:43.826Z,0.97
2023-11-24T12:25:13.904Z,0.60
2023-11-24T12:27:43.025Z,1.00
2023-11-24T12:30:14.518Z,0.60
2023-11-24T12:32:43.842Z,1.03
2023-11-24T12:35:12.308Z,0.93
2023-11-24T12:37:45.552Z,0.80
2023-11-24T12:40:13.147Z,0.87
2023-11-24T12:42:41.885Z,0.50
2023-11-24T12:45:09.940Z,1.20
2023-11-24T12:50:12.942Z,0.83
2023-11-24T12:52:42.637Z,1.70
2023-11-24T12:55:11.536Z,1.10
2023-11-24T12:57:40.093Z,3.80
2023-11-24T13:00:11.114Z,2.73
2023-11-24T13:02:39.095Z,3.57
2023-11-24T13:05:10.795Z,2.20
2023-11-24T13:07:38.629Z,1.70
2023-11-24T13:10:10.853Z,3.83
2023-11-24T13:12:38.605Z,1.10
2023-11-24T13:15:10.647Z,1.50
2023-11-24T13:17:39.359Z,1.30
2023-11-24T13:20:12.027Z,1.63
2023-11-24T13:22:39.754Z,0.43
2023-11-24T13:25:09.822Z,0.50
2023-11-24T13:27:37.261Z,0.40
2023-11-24T13:30:07.618Z,0.40
2023-11-24T13:32:34.608Z,0.40
2023-11-24T13:35:01.551Z,0.60
2023-11-24T13:37:31.632Z,0.60
2023-11-24T13:39:58.782Z,0.60
2023-11-24T13:42:26.065Z,0.40
2023-11-24T13:44:52.970Z,0.50
2023-11-24T13:47:20.058Z,1.37
2023-11-24T13:49:47.700Z,1.10
2023-11-24T13:52:16.022Z,0.67
2023-11-24T13:54:44.473Z,1.77
2023-11-24T13:57:12.337Z,1.20
2023-11-24T13:59:39.331Z,0.60
2023-11-24T14:02:07.616Z,0.60
2023-11-24T14:04:36.225Z,2.80
2023-11-24T14:07:03.785Z,0.87
2023-11-24T14:09:32.918Z,0.73
2023-11-24T14:12:01.666Z,0.50
2023-11-24T14:14:28.948Z,0.60
2023-11-24T14:16:57.066Z,0.87
2023-11-24T14:19:24.169Z,0.77
2023-11-24T14:21:51.745Z,0.70
2023-11-24T14:24:18.692Z,0.83
2023-11-24T14:26:46.016Z,0.77
2023-11-24T14:29:14.934Z,0.70
2023-11-24T14:31:42.096Z,1.10
2023-11-24T14:34:09.939Z,0.70
2023-11-24T14:36:39.641Z,0.50
2023-11-24T14:39:06.904Z,0.60
2023-11-24T14:41:33.800Z,0.57
2023-11-24T14:44:00.829Z,0.70
2023-11-24T14:46:30.220Z,0.93
2023-11-24T14:48:57.722Z,0.90
2023-11-24T14:51:27.712Z,0.80
2023-11-24T14:53:55.557Z,0.80
2023-11-24T14:56:24.433Z,0.70
2023-11-24T14:58:52.010Z,0.87
2023-11-24T15:01:24.009Z,1.20
2023-11-24T15:03:54.397Z,0.97
2023-11-24T15:06:26.530Z,0.93
2023-11-24T15:09:01.416Z,1.03
2023-11-24T15:11:38.754Z,0.87
2023-11-24T15:14:14.474Z,0.93
2023-11-24T15:17:01.918Z,1.10
2023-11-24T15:19:30.672Z,4.27
2023-11-24T15:22:03.961Z,0.70
2023-11-24T15:24:32.863Z,0.90
2023-11-24T15:27:01.379Z,1.43
2023-11-24T15:29:28.295Z,1.00
2023-11-24T15:31:55.286Z,0.90
2023-11-24T15:34:25.935Z,0.70
2023-11-24T15:36:54.265Z,1.00
2023-11-24T15:39:36.102Z,1.53
2023-11-24T15:42:05.205Z,1.20
2023-11-24T15:44:34.080Z,2.40
2023-11-24T15:47:03.495Z,2.80
2023-11-24T15:49:30.479Z,4.00
2023-11-24T15:51:58.763Z,2.50
2023-11-24T15:54:27.714Z,4.17
2023-11-24T15:56:55.457Z,1.83
2023-11-24T15:59:25.594Z,1.97
2023-11-24T16:01:53.900Z,2.07
2023-11-24T16:04:23.706Z,3.30
2023-11-24T16:06:56.884Z,1.67
2023-11-24T16:09:27.004Z,1.33
2023-11-24T16:12:01.915Z,1.57
2023-11-24T16:14:30.304Z,1.93
2023-11-24T16:16:57.553Z,1.70
2023-11-24T16:19:24.590Z,1.57
2023-11-24T16:21:51.836Z,1.63
2023-11-24T16:24:19.449Z,1.70
2023-11-24T16:26:47.993Z,1.67
2023-11-24T16:29:15.695Z,2.00
2023-11-24T16:31:46.596Z,1.30
2023-11-24T16:34:16.053Z,1.43
2023-11-24T16:36:43.720Z,1.60
2023-11-24T16:39:11.046Z,1.40
2023-11-24T16:41:37.990Z,2.10
2023-11-24T16:44:07.513Z,1.73
2023-11-24T16:46:34.843Z,1.17
2023-11-24T16:49:02.985Z,1.20
2023-11-24T16:51:29.939Z,1.20
2023-11-24T16:53:56.891Z,1.40
2023-11-24T16:56:25.173Z,1.17
2023-11-24T16:58:54.183Z,1.10
2023-11-24T17:01:22.697Z,0.80
2023-11-24T17:03:49.931Z,0.80
2023-11-24T17:06:16.908Z,0.93
2023-11-24T17:08:43.868Z,0.70
2023-11-24T17:11:12.095Z,0.97
2023-11-24T17:13:39.278Z,1.40
2023-11-24T17:16:07.484Z,1.20
2023-11-24T17:18:37.693Z,1.43
2023-11-24T17:21:05.329Z,1.50
2023-11-24T17:23:33.603Z,0.97
2023-11-24T17:26:00.564Z,1.10
2023-11-24T17:28:27.780Z,1.23
2023-11-24T17:30:54.714Z,1.33
2023-11-24T17:33:21.678Z,1.40
2023-11-24T17:35:49.945Z,1.07
2023-11-24T17:38:19.475Z,9.77
2023-11-24T17:40:48.691Z,1.67
2023-11-24T17:43:15.690Z,1.30
2023-11-24T17:45:42.696Z,1.57
2023-11-24T17:48:11.483Z,3.20
2023-11-24T17:50:38.873Z,1.13
2023-11-24T17:53:07.939Z,0.90
2023-11-24T17:55:35.482Z,1.30
2023-11-24T17:58:02.569Z,5.10
2023-11-24T18:00:33.218Z,1.47
2023-11-24T18:03:00.385Z,11.47
2023-11-24T18:05:27.453Z,14.67
2023-11-24T18:07:54.540Z,18.87
2023-11-24T18:10:23.213Z,7.07
2023-11-24T18:12:54.589Z,1.63
2023-11-24T18:15:21.762Z,1.07
2023-11-24T18:17:48.899Z,0.80
2023-11-24T18:20:16.003Z,0.50
2023-11-24T18:22:42.929Z,0.60
2023-11-24T18:25:10.213Z,0.80
2023-11-24T18:27:39.088Z,0.80
2023-11-24T18:30:11.088Z,1.00
2023-11-24T18:32:38.890Z,0.70
2023-11-24T18:35:09.229Z,1.13
2023-11-24T18:37:36.236Z,0.60
2023-11-24T18:40:04.723Z,0.70
2023-11-24T18:42:31.682Z,0.70
2023-11-24T18:45:00.029Z,0.70
2023-11-24T18:47:27.695Z,1.00
2023-11-24T18:49:54.763Z,0.70
2023-11-24T18:52:22.980Z,0.70
2023-11-24T18:54:52.558Z,0.67
2023-11-24T18:57:19.528Z,0.50
2023-11-24T18:59:46.493Z,0.80
2023-11-24T19:02:16.167Z,0.77
2023-11-24T19:04:43.739Z,0.80
2023-11-24T19:07:12.041Z,1.03
2023-11-24T19:09:39.132Z,0.60
2023-11-24T19:12:07.230Z,1.00
2023-11-24T19:14:35.406Z,0.70
2023-11-24T19:17:02.436Z,0.70
2023-11-24T19:19:30.839Z,0.80
2023-11-24T19:21:57.795Z,0.57
2023-11-24T19:24:24.737Z,0.60
2023-11-24T19:26:51.800Z,0.60
2023-11-24T19:29:18.781Z,0.67
2023-11-24T19:31:45.937Z,0.60
2023-11-24T19:34:12.981Z,0.83
2023-11-24T19:36:42.850Z,0.60
2023-11-24T19:39:12.485Z,0.90
2023-11-24T19:41:39.470Z,0.60
2023-11-24T19:44:06.772Z,0.60
2023-11-24T19:46:34.167Z,0.80
2023-11-24T19:49:01.345Z,0.90
2023-11-24T19:51:28.393Z,0.93
2023-11-24T19:53:56.704Z,1.00
2023-11-24T19:56:23.596Z,0.90
2023-11-24T19:58:50.485Z,1.00
2023-11-24T20:01:20.610Z,1.00
2023-11-24T20:03:47.778Z,1.20
2023-11-24T20:06:14.928Z,1.10
2023-11-24T20:08:41.840Z,1.03
2023-11-24T20:11:10.079Z,1.60
2023-11-24T20:13:37.016Z,1.17
2023-11-24T20:16:04.331Z,1.33
2023-11-24T20:18:32.045Z,1.40
2023-11-24T20:20:58.997Z,1.60
2023-11-24T20:23:26.198Z,1.10
2023-11-24T20:25:53.134Z,1.40
2023-11-24T20:28:21.384Z,1.47
2023-11-24T20:30:49.714Z,1.30
2023-11-24T20:33:16.736Z,1.63
2023-11-24T20:35:44.190Z,2.53
2023-11-24T20:38:11.131Z,1.70
2023-11-24T20:40:38.065Z,1.30
2023-11-24T20:43:05.644Z,1.30
2023-11-24T20:45:34.165Z,1.40
2023-11-24T20:48:01.170Z,1.47
2023-11-24T20:50:28.110Z,1.03
2023-11-24T20:52:55.031Z,1.10
2023-11-24T20:55:22.386Z,1.10
2023-11-24T20:57:49.328Z,1.40
2023-11-24T21:00:17.044Z,1.50
2023-11-24T21:02:46.231Z,1.40
2023-11-24T21:05:13.337Z,1.10
2023-11-24T21:07:40.912Z,1.40
2023-11-24T21:10:09.258Z,1.20
2023-11-24T21:12:42.376Z,1.43
2023-11-24T21:15:15.375Z,1.20
2023-11-24T21:17:42.616Z,0.90
2023-11-24T21:20:14.587Z,1.00
2023-11-24T21:22:41.652Z,0.90
2023-11-24T21:25:08.813Z,0.77
2023-11-24T21:27:35.968Z,0.97
2023-11-24T21:30:03.134Z,1.00
2023-11-24T21:32:31.419Z,1.17
2023-11-24T21:34:59.290Z,1.23
2023-11-24T21:37:29.913Z,0.90
2023-11-24T21:40:01.848Z,0.77
2023-11-24T21:42:29.538Z,1.07
2023-11-24T21:44:59.412Z,0.80
2023-11-24T21:47:26.870Z,0.80
2023-11-24T21:49:56.603Z,0.80
2023-11-24T21:52:23.511Z,0.90
2023-11-24T21:54:51.784Z,0.50
2023-11-24T21:57:18.708Z,0.63
2023-11-24T21:59:45.833Z,0.70
2023-11-24T22:02:12.831Z,0.87
2023-11-24T22:04:39.826Z,1.20
2023-11-24T22:07:06.755Z,1.10
2023-11-24T22:09:34.020Z,1.17
2023-11-24T22:12:02.524Z,1.30
2023-11-24T22:14:29.412Z,1.70
2023-11-24T22:16:56.327Z,1.40
2023-11-24T22:19:23.967Z,1.20
2023-11-24T22:21:51.020Z,1.07
2023-11-24T22:24:17.977Z,1.20
2023-11-24T22:26:44.904Z,1.33
2023-11-24T22:29:13.418Z,1.03
2023-11-24T22:31:40.633Z,1.20
2023-11-24T22:34:08.496Z,0.77
2023-11-24T22:36:35.685Z,0.70
2023-11-24T22:39:02.687Z,0.60
2023-11-24T22:41:29.904Z,0.70
2023-11-24T22:43:57.179Z,0.87
2023-11-24T22:46:26.640Z,0.60
2023-11-24T22:48:54.822Z,0.70
2023-11-24T22:51:23.082Z,0.70
2023-11-24T22:53:50.790Z,1.10
2023-11-24T22:56:19.637Z,0.50
2023-11-24T22:58:48.551Z,0.70
2023-11-24T23:01:22.203Z,0.40
2023-11-24T23:03:50.876Z,0.50
2023-11-24T23:06:18.593Z,0.50
2023-11-24T23:08:46.428Z,0.50
2023-11-24T23:11:19.523Z,0.50
2023-11-24T23:13:48.497Z,0.60
2023-11-24T23:16:16.769Z,0.57
2023-11-24T23:18:45.821Z,1.20
2023-11-24T23:21:15.635Z,0.77
2023-11-24T23:23:46.048Z,0.53
2023-11-24T23:26:12.962Z,0.50
2023-11-24T23:28:40.311Z,0.63
2023-11-24T23:31:08.613Z,0.57
2023-11-24T23:33:37.259Z,0.70
2023-11-24T23:36:04.688Z,0.70
2023-11-24T23:38:33.061Z,0.50
2023-11-24T23:41:03.358Z,0.50
2023-11-24T23:43:30.513Z,0.50
2023-11-24T23:45:58.250Z,0.60
2023-11-24T23:48:25.499Z,0.70
2023-11-24T23:50:53.920Z,0.70
2023-11-24T23:53:22.607Z,0.53
2023-11-24T23:55:51.432Z,0.63
2023-11-24T23:58:18.426Z,0.90
